Los Angeles Regional Airport Weather

KWHP 200255Z 00000KT 10SM SKC 17/12 A2965

KAPV 191256Z AUTO 05004KT 10SM FEW075 SCT090 BKN110 18/18 A2996 RMK AO2 SLP144 T01830178 $

KAVX 200251Z AUTO 23009KT 9SM BKN002 OVC100 13/12 A2964 RMK AO2 WSHFT 0157 LTG DSNT NE SLP020 T01330117 56011 $

KBFL 200254Z 34004KT 6SM HZ FEW075 18/07 A2959 RMK AO2 SLP016 T01780072 55004

KBUR 200253Z 13009KT 10SM FEW120 17/12 A2960 RMK AO2 LTG DSNT SE SLP014 T01720117 58007

KCMA 200255Z 33006KT 9SM CLR 16/12 A2961 RMK AO2 SLP034 T01610122 55003

KCNO 200253Z 30006KT 10SM -RA OVC100 19/13 A2963 RMK AO2 LTG DSNT SW RAE22B52 SLP030 P0001 60001 T01890128 50001 $

KEMT 200250Z 21004KT 10SM SCT100 19/13 A2963

KFUL 200253Z 15009G15KT 10SM VCTS FEW090 OVC110 20/13 A2961 RMK AO2 RAB24E33 SLP027 P0000 60000 T02000128 55001

KHHR 200253Z 13008KT 10SM OVC110 19/14 A2961 RMK AO2 LTG DSNT SE RAB00E17 TSE07 SLP025 P0000 60000 T01890139 58009 $

KL35 200255Z AUTO 23003KT 10SM BKN032 OVC040 07/02 A2976 RMK AO2

KLAX 200253Z 11008KT 10SM FEW019 BKN120 18/15 A2960 RMK AO2 LTG DSNT SE RAE06 TSE07 SLP022 P0000 60001 T01830150 58010 $

KLGB 200248Z 00000KT 10SM VCTS SCT025 OVC110 18/15 A2962 RMK AO2 RAB0154E37 SLP031 P0000 60000 T01780150 55003

KONT 200253Z 27012KT 10SM -RA SCT065 OVC100 18/12 A2963 RMK AO2 LTG DSNT SW RAE02B25 SLP024 CB DSNT SW P0000 60000 T01830117 56003

KOXR 200251Z 00000KT 10SM CLR 15/12 A2961 RMK AO2 SLP024 T01500122 55003

KPMD 200253Z 00000KT 10SM CLR 16/00 A2960 RMK AO2 SLP012 T01560000 58003

KPOC 200147Z 27007KT 10SM SCT030 BKN039 OVC095 20/05 A2965

KRAL 200253Z VRB04KT 10SM -RA FEW055 OVC085 20/08 A2962 RMK AO2 RAB51 SLP018 P0000 60000 T02000083 55006

KSMO 200251Z 00000KT 10SM FEW023 17/14 A2961 RMK AO2 LTG DSNT SE SLP024 T01670139 58010

KSNA 200253Z 16008KT 9SM -RA SCT028 BKN080 OVC110 21/13 A2963 RMK AO2 LTG DSNT NW SLP030 P0000 60000 T02060133 55001

KTOA 200254Z 00000KT 10SM FEW018 SCT023 BKN110 18/15 A2961 RMK TSE0202

KTRM 200252Z AUTO 31005KT 10SM VCTS -RA FEW085 OVC110 18/11 A2957 RMK AO2 SLP014 P0001 60001 T01830106 58009

KVNY 200251Z 12008KT 10SM CLR 17/13 A2959 RMK AO2 SLP015 T01670128 58009

KWJF 200256Z 26009KT 10SM CLR 16/02 A2960 RMK AO2 SLP022 T01610022 58001



How to read METARs